createdAt,value
2022-08-03T00:01:45.476Z,15.82
2022-08-03T00:04:12.524Z,15.80
2022-08-03T00:06:39.407Z,15.74
2022-08-03T00:09:07.242Z,15.71
2022-08-03T00:11:34.533Z,15.51
2022-08-03T00:14:01.579Z,15.60
2022-08-03T00:16:28.589Z,15.70
2022-08-03T00:18:55.370Z,15.69
2022-08-03T00:21:22.182Z,15.56
2022-08-03T00:23:51.871Z,15.62
2022-08-03T00:26:20.470Z,15.61
2022-08-03T00:28:47.559Z,15.62
2022-08-03T00:31:14.666Z,15.63
2022-08-03T00:33:58.275Z,15.60
2022-08-03T00:36:27.160Z,15.58
2022-08-03T00:38:54.001Z,15.62
2022-08-03T00:41:20.732Z,15.62
2022-08-03T00:43:47.882Z,15.59
2022-08-03T00:46:19.206Z,15.58
2022-08-03T00:48:51.757Z,15.53
2022-08-03T00:51:20.016Z,15.55
2022-08-03T00:53:46.851Z,15.49
2022-08-03T00:56:15.321Z,15.49
2022-08-03T00:58:44.646Z,15.49
2022-08-03T01:01:12.474Z,15.52
2022-08-03T01:03:39.775Z,15.49
2022-08-03T01:06:18.547Z,15.47
2022-08-03T01:09:02.927Z,15.44
2022-08-03T01:12:01.259Z,15.38
2022-08-03T01:14:38.439Z,15.36
2022-08-03T01:17:14.023Z,15.34
2022-08-03T01:20:02.134Z,15.29
2022-08-03T01:23:03.356Z,15.28
2022-08-03T01:25:54.450Z,15.23
2022-08-03T01:28:27.414Z,15.24
2022-08-03T01:30:59.152Z,15.29
2022-08-03T01:33:37.208Z,15.36
2022-08-03T01:36:07.913Z,15.40
2022-08-03T01:38:38.650Z,15.38
2022-08-03T01:41:11.033Z,15.42
2022-08-03T01:43:58.914Z,15.34
2022-08-03T01:46:30.104Z,15.29
2022-08-03T01:48:58.781Z,15.30
2022-08-03T01:51:58.662Z,15.35
2022-08-03T01:54:13.757Z,15.34
2022-08-03T01:56:42.947Z,15.36
2022-08-03T01:59:11.803Z,15.24
2022-08-03T02:02:27.920Z,15.14
2022-08-03T02:04:28.301Z,15.08
2022-08-03T02:07:01.077Z,14.93
2022-08-03T02:09:31.132Z,14.89
2022-08-03T02:11:58.860Z,14.90
2022-08-03T02:14:27.372Z,14.91
2022-08-03T02:16:57.391Z,14.79
2022-08-03T02:19:26.703Z,14.66
2022-08-03T02:21:57.234Z,14.56
2022-08-03T02:24:27.772Z,14.44
2022-08-03T02:26:56.676Z,14.36
2022-08-03T02:29:39.800Z,14.32
2022-08-03T02:32:12.611Z,14.22
2022-08-03T02:34:42.391Z,14.24
2022-08-03T02:37:11.852Z,14.20
2022-08-03T02:39:40.760Z,14.07
2022-08-03T02:42:12.881Z,14.14
2022-08-03T02:44:43.809Z,14.19
2022-08-03T02:47:13.473Z,14.18
2022-08-03T02:49:50.650Z,14.16
2022-08-03T02:52:21.667Z,14.17
2022-08-03T02:54:51.265Z,14.16
2022-08-03T02:57:20.098Z,14.20
2022-08-03T02:59:47.585Z,14.21
2022-08-03T03:02:17.082Z,14.21
2022-08-03T03:04:55.025Z,14.19
2022-08-03T03:07:34.667Z,14.23
2022-08-03T03:10:20.651Z,14.24
2022-08-03T03:12:49.366Z,14.25
2022-08-03T03:15:16.205Z,14.20
2022-08-03T03:17:44.288Z,14.18
2022-08-03T03:20:12.189Z,14.19
2022-08-03T03:22:40.542Z,14.21
2022-08-03T03:25:12.215Z,14.24
2022-08-03T03:27:40.092Z,14.30
2022-08-03T03:30:07.643Z,14.25
2022-08-03T03:32:36.830Z,14.31
2022-08-03T03:35:05.653Z,14.31
2022-08-03T03:37:32.821Z,14.31
2022-08-03T03:39:59.613Z,14.36
2022-08-03T03:42:26.877Z,14.41
2022-08-03T03:44:53.832Z,14.48
2022-08-03T03:47:32.334Z,14.48
2022-08-03T03:49:59.730Z,14.46
2022-08-03T03:52:26.572Z,14.41
2022-08-03T03:54:57.495Z,14.46
2022-08-03T03:57:27.694Z,14.44
2022-08-03T03:59:56.018Z,14.47
2022-08-03T04:02:23.362Z,14.48
2022-08-03T04:05:08.988Z,14.51
2022-08-03T04:08:14.591Z,14.55
2022-08-03T04:11:01.326Z,14.62
2022-08-03T04:13:37.191Z,14.72
2022-08-03T04:16:05.259Z,14.78
2022-08-03T04:18:35.440Z,14.95
2022-08-03T04:21:05.473Z,15.02
2022-08-03T04:23:35.889Z,15.08
2022-08-03T04:26:05.833Z,15.21
2022-08-03T04:28:33.467Z,15.25
2022-08-03T04:31:02.547Z,15.35
2022-08-03T04:33:32.606Z,15.37
2022-08-03T04:36:03.503Z,15.45
2022-08-03T04:38:36.547Z,15.60
2022-08-03T04:41:03.907Z,15.69
2022-08-03T04:43:33.593Z,15.72
2022-08-03T04:46:01.795Z,15.97
2022-08-03T04:48:29.233Z,16.08
2022-08-03T04:50:56.637Z,16.18
2022-08-03T04:53:23.699Z,16.29
2022-08-03T04:55:50.714Z,16.51
2022-08-03T04:58:17.472Z,16.70
2022-08-03T05:00:45.652Z,16.75
2022-08-03T05:03:20.395Z,16.90
2022-08-03T05:06:01.909Z,16.97
2022-08-03T05:08:46.203Z,17.07
2022-08-03T05:11:15.639Z,17.21
2022-08-03T05:13:43.160Z,17.38
2022-08-03T05:16:10.155Z,17.50
2022-08-03T05:18:37.118Z,17.56
2022-08-03T05:21:05.148Z,17.60
2022-08-03T05:23:32.061Z,17.60
2022-08-03T05:25:58.920Z,17.73
2022-08-03T05:28:25.731Z,17.83
2022-08-03T05:30:52.507Z,17.94
2022-08-03T05:33:19.426Z,18.02
2022-08-03T05:35:57.955Z,18.08
2022-08-03T05:38:33.971Z,18.10
2022-08-03T05:41:22.327Z,18.29
2022-08-03T05:43:54.596Z,18.54
2022-08-03T05:46:23.209Z,18.78
2022-08-03T05:48:50.413Z,18.93
2022-08-03T05:51:17.369Z,19.09
2022-08-03T05:53:44.474Z,19.20
2022-08-03T05:56:13.616Z,19.37
2022-08-03T05:58:44.719Z,19.57
2022-08-03T06:01:12.042Z,19.75
2022-08-03T06:03:38.879Z,19.92
2022-08-03T06:06:05.768Z,19.96
2022-08-03T06:08:32.530Z,20.11
2022-08-03T06:10:59.492Z,20.25
2022-08-03T06:13:26.545Z,20.23
2022-08-03T06:15:53.333Z,20.41
2022-08-03T06:18:20.308Z,20.30
2022-08-03T06:20:49.304Z,20.54
2022-08-03T06:23:17.825Z,20.58
2022-08-03T06:25:46.379Z,20.67
2022-08-03T06:28:51.610Z,20.71
2022-08-03T06:31:06.547Z,20.74
2022-08-03T06:34:31.161Z,21.04
2022-08-03T06:36:20.684Z,21.08
2022-08-03T06:38:47.914Z,21.31
2022-08-03T06:41:14.951Z,21.42
2022-08-03T06:44:03.999Z,21.63
2022-08-03T06:46:29.340Z,21.56
2022-08-03T06:48:56.721Z,21.61
2022-08-03T06:52:04.385Z,21.69
2022-08-03T06:54:11.009Z,21.94
2022-08-03T06:56:38.049Z,22.22
2022-08-03T06:59:04.898Z,22.38
2022-08-03T07:01:31.823Z,22.50
2022-08-03T07:03:58.849Z,22.51
2022-08-03T07:06:25.653Z,22.57
2022-08-03T07:08:56.493Z,22.63
2022-08-03T07:11:26.430Z,22.80
2022-08-03T07:13:53.188Z,22.97
2022-08-03T07:16:20.244Z,23.21
2022-08-03T07:18:48.634Z,23.35
2022-08-03T07:21:16.962Z,23.44
2022-08-03T07:23:43.792Z,23.65
2022-08-03T07:26:10.694Z,23.62
2022-08-03T07:28:37.761Z,23.81
2022-08-03T07:31:04.576Z,23.91
2022-08-03T07:33:31.424Z,23.91
2022-08-03T07:35:58.430Z,23.99
2022-08-03T07:38:25.249Z,24.18
2022-08-03T07:40:52.047Z,24.05
2022-08-03T07:43:19.010Z,24.24
2022-08-03T07:45:45.794Z,24.29
2022-08-03T07:48:12.868Z,24.33
2022-08-03T07:50:39.859Z,24.37
2022-08-03T07:53:06.614Z,24.41
2022-08-03T07:55:33.685Z,24.50
2022-08-03T07:58:09.999Z,24.48
2022-08-03T08:00:36.986Z,24.69
2022-08-03T08:03:04.935Z,24.72
2022-08-03T08:05:32.628Z,24.92
2022-08-03T08:08:00.281Z,25.02
2022-08-03T08:10:28.085Z,25.08
2022-08-03T08:12:55.643Z,25.31
2022-08-03T08:15:22.976Z,25.30
2022-08-03T08:17:55.436Z,25.52
2022-08-03T08:20:31.620Z,25.63
2022-08-03T08:23:19.281Z,25.92
2022-08-03T08:25:52.705Z,26.01
2022-08-03T08:28:32.666Z,25.85
2022-08-03T08:31:01.575Z,25.98
2022-08-03T08:33:42.086Z,26.07
2022-08-03T08:36:15.698Z,26.16
2022-08-03T08:38:45.124Z,26.49
2022-08-03T08:41:14.247Z,26.60
2022-08-03T08:43:42.352Z,26.86
2022-08-03T08:46:23.452Z,27.15
2022-08-03T08:48:52.777Z,27.20
2022-08-03T08:51:21.340Z,27.26
2022-08-03T08:53:51.664Z,27.67
2022-08-03T08:56:20.113Z,27.89
2022-08-03T08:58:54.364Z,27.79
2022-08-03T09:01:22.053Z,27.90
2022-08-03T09:03:49.067Z,28.31
2022-08-03T09:06:16.981Z,28.79
2022-08-03T09:08:43.834Z,29.10
2022-08-03T09:11:11.949Z,28.96
2022-08-03T09:13:39.605Z,28.95
2022-08-03T09:16:21.551Z,28.75
2022-08-03T09:18:51.230Z,28.74
2022-08-03T09:21:34.275Z,29.23
2022-08-03T09:24:05.297Z,29.67
2022-08-03T09:26:37.148Z,29.36
2022-08-03T09:29:16.775Z,29.48
2022-08-03T09:31:45.680Z,29.80
2022-08-03T09:34:17.689Z,30.01
2022-08-03T09:36:51.583Z,30.35
2022-08-03T09:39:40.290Z,30.40
2022-08-03T09:42:11.505Z,30.41
2022-08-03T09:44:46.420Z,30.58
2022-08-03T09:47:15.334Z,30.80
2022-08-03T09:49:43.496Z,31.11
2022-08-03T09:52:38.943Z,31.31
2022-08-03T09:56:05.105Z,31.36
2022-08-03T09:58:07.279Z,31.13
2022-08-03T10:00:52.402Z,31.34
2022-08-03T10:03:19.290Z,31.36
2022-08-03T10:05:46.244Z,31.15
2022-08-03T10:08:17.596Z,31.05
2022-08-03T10:10:46.392Z,31.43
2022-08-03T10:13:18.562Z,31.52
2022-08-03T10:16:21.915Z,30.94
2022-08-03T10:18:33.463Z,30.82
2022-08-03T10:21:07.955Z,30.36
2022-08-03T10:23:35.146Z,30.08
2022-08-03T10:26:07.610Z,30.01
2022-08-03T10:28:45.556Z,29.78
2022-08-03T10:31:14.373Z,29.68
2022-08-03T10:33:51.591Z,30.04
2022-08-03T10:36:24.163Z,30.22
2022-08-03T10:38:53.185Z,30.76
2022-08-03T10:41:22.064Z,31.33
2022-08-03T10:43:56.740Z,31.57
2022-08-03T10:46:24.001Z,31.89
2022-08-03T10:48:52.825Z,31.94
2022-08-03T10:51:20.790Z,31.61
2022-08-03T10:53:54.987Z,31.58
2022-08-03T10:56:54.358Z,31.75
2022-08-03T10:59:46.209Z,31.77
2022-08-03T11:02:14.846Z,31.87
2022-08-03T11:04:42.798Z,31.87
2022-08-03T11:07:24.584Z,31.74
2022-08-03T11:09:56.677Z,31.90
2022-08-03T11:12:31.170Z,31.93
2022-08-03T11:15:05.219Z,31.86
2022-08-03T11:17:33.821Z,31.66
2022-08-03T11:20:14.144Z,31.31
2022-08-03T11:22:51.539Z,31.25
2022-08-03T11:25:53.630Z,31.29
2022-08-03T11:28:28.717Z,31.23
2022-08-03T11:30:55.690Z,31.32
2022-08-03T11:33:31.983Z,31.42
2022-08-03T11:36:01.219Z,31.52
2022-08-03T11:38:28.068Z,31.61
2022-08-03T11:40:55.084Z,32.00
2022-08-03T11:43:31.803Z,32.14
2022-08-03T11:46:03.131Z,32.51
2022-08-03T11:48:35.950Z,32.70
2022-08-03T11:51:04.808Z,32.74
2022-08-03T11:53:31.926Z,33.29
2022-08-03T11:56:00.300Z,34.19
2022-08-03T11:59:10.607Z,34.53
2022-08-03T12:01:21.269Z,35.17
2022-08-03T12:03:50.315Z,35.67
2022-08-03T12:06:19.495Z,35.73
2022-08-03T12:08:46.677Z,35.39
2022-08-03T12:11:16.018Z,35.53
2022-08-03T12:14:35.673Z,35.45
2022-08-03T12:16:34.635Z,34.98
2022-08-03T12:19:05.057Z,34.61
2022-08-03T12:21:32.540Z,34.46
2022-08-03T12:24:01.246Z,34.18
2022-08-03T12:26:30.013Z,33.56
2022-08-03T12:28:58.484Z,33.28
2022-08-03T12:31:25.881Z,33.03
2022-08-03T12:34:03.402Z,32.44
2022-08-03T12:36:33.037Z,32.07
2022-08-03T12:39:08.310Z,31.92
2022-08-03T12:41:39.893Z,31.87
2022-08-03T12:44:08.784Z,32.05
2022-08-03T12:46:45.386Z,31.90
2022-08-03T12:49:19.530Z,31.80
2022-08-03T12:51:46.328Z,31.88
2022-08-03T12:54:18.957Z,31.77
2022-08-03T12:57:05.082Z,31.79
2022-08-03T12:59:40.847Z,31.59
2022-08-03T13:02:28.046Z,31.16
2022-08-03T13:04:55.356Z,31.03
2022-08-03T13:07:23.214Z,30.98
2022-08-03T13:09:55.916Z,30.89
2022-08-03T13:12:24.946Z,30.81
2022-08-03T13:14:55.031Z,30.65
2022-08-03T13:17:22.316Z,30.77
2022-08-03T13:19:50.304Z,30.71
2022-08-03T13:22:18.489Z,30.65
2022-08-03T13:24:46.890Z,30.67
2022-08-03T13:28:01.990Z,30.79
2022-08-03T13:30:01.508Z,30.86
2022-08-03T13:32:28.390Z,30.88
2022-08-03T13:34:55.269Z,30.83
2022-08-03T13:37:22.567Z,30.81
2022-08-03T13:40:00.166Z,30.77
2022-08-03T13:42:32.399Z,30.83
2022-08-03T13:45:00.775Z,30.83
2022-08-03T13:47:28.141Z,30.42
2022-08-03T13:50:01.629Z,30.39
2022-08-03T13:52:31.173Z,30.39
2022-08-03T13:54:58.774Z,30.38
2022-08-03T13:58:11.638Z,30.40
2022-08-03T14:00:13.105Z,30.25
2022-08-03T14:02:55.328Z,29.85
2022-08-03T14:05:26.202Z,30.17
2022-08-03T14:07:53.019Z,30.21
2022-08-03T14:10:25.185Z,30.06
2022-08-03T14:12:52.231Z,29.56
2022-08-03T14:15:19.109Z,29.47
2022-08-03T14:17:50.205Z,29.40
2022-08-03T14:20:36.225Z,29.38
2022-08-03T14:23:04.050Z,29.60
2022-08-03T14:25:49.865Z,29.71
2022-08-03T14:28:19.074Z,29.86
2022-08-03T14:30:46.565Z,29.63
2022-08-03T14:33:13.540Z,29.27
2022-08-03T14:35:40.850Z,29.23
2022-08-03T14:38:07.662Z,28.78
2022-08-03T14:40:34.653Z,28.42
2022-08-03T14:43:02.448Z,28.20
2022-08-03T14:45:29.332Z,27.82
2022-08-03T14:50:33.249Z,27.89
2022-08-03T14:50:46.998Z,27.41
2022-08-03T14:53:17.743Z,27.33
2022-08-03T14:55:49.596Z,27.52
2022-08-03T14:58:21.990Z,27.58
2022-08-03T15:00:50.753Z,27.60
2022-08-03T15:03:20.505Z,27.51
2022-08-03T15:05:47.784Z,27.49
2022-08-03T15:08:14.701Z,27.26
2022-08-03T15:10:44.508Z,27.08
2022-08-03T15:13:15.578Z,26.98
2022-08-03T15:15:42.882Z,26.92
2022-08-03T15:18:09.865Z,26.87
2022-08-03T15:20:44.299Z,26.80
2022-08-03T15:23:13.319Z,26.50
2022-08-03T15:30:10.077Z,25.61
2022-08-03T15:32:37.236Z,25.43
2022-08-03T15:35:04.457Z,25.29
2022-08-03T15:37:31.188Z,24.39
2022-08-03T15:39:59.009Z,24.08
2022-08-03T15:42:31.210Z,24.01
2022-08-03T15:44:58.824Z,23.83
2022-08-03T15:47:25.913Z,23.82
2022-08-03T15:49:52.784Z,23.69
2022-08-03T15:52:19.531Z,23.80
2022-08-03T15:54:46.261Z,23.94
2022-08-03T15:57:13.164Z,23.98
2022-08-03T15:59:39.935Z,24.02
2022-08-03T16:02:06.754Z,23.96
2022-08-03T16:04:33.757Z,23.85
2022-08-03T16:07:00.695Z,23.72
2022-08-03T16:09:42.217Z,23.68
2022-08-03T16:12:11.750Z,23.31
2022-08-03T16:14:51.791Z,23.13
2022-08-03T16:17:19.212Z,23.05
2022-08-03T16:19:46.212Z,23.01
2022-08-03T16:22:14.327Z,22.80
2022-08-03T16:24:41.509Z,22.81
2022-08-03T16:27:17.652Z,22.74
2022-08-03T16:29:55.248Z,22.67
2022-08-03T16:32:22.051Z,22.70
2022-08-03T16:34:48.995Z,22.70
2022-08-03T16:37:37.617Z,22.62
2022-08-03T16:40:03.842Z,22.75
2022-08-03T16:42:30.744Z,22.94
2022-08-03T16:44:57.632Z,23.12
2022-08-03T16:47:24.538Z,23.18
2022-08-03T16:49:54.161Z,23.56
2022-08-03T16:52:23.905Z,23.82
2022-08-03T16:54:52.963Z,23.85
2022-08-03T16:57:59.960Z,23.80
2022-08-03T17:00:33.182Z,23.66
2022-08-03T17:03:04.318Z,23.53
2022-08-03T17:05:43.911Z,23.53
2022-08-03T17:08:14.502Z,23.43
2022-08-03T17:10:45.562Z,23.36
2022-08-03T17:13:21.929Z,23.38
2022-08-03T17:15:58.638Z,23.38
2022-08-03T17:18:33.173Z,23.39
2022-08-03T17:21:03.481Z,23.43
2022-08-03T17:23:42.310Z,23.34
2022-08-03T17:26:21.200Z,23.29
2022-08-03T17:28:57.327Z,23.03
2022-08-03T17:31:31.142Z,22.99
2022-08-03T17:34:01.995Z,22.90
2022-08-03T17:37:02.209Z,22.94
2022-08-03T17:39:27.050Z,22.89
2022-08-03T17:42:05.387Z,22.63
2022-08-03T17:44:53.883Z,22.54
2022-08-03T17:47:21.561Z,22.44
2022-08-03T17:49:48.561Z,22.43
2022-08-03T17:52:30.840Z,22.31
2022-08-03T17:55:56.779Z,22.27
2022-08-03T17:58:13.909Z,22.23
2022-08-03T18:01:04.573Z,22.14
2022-08-03T18:03:59.766Z,22.00
2022-08-03T18:06:31.215Z,21.95
2022-08-03T18:11:51.252Z,21.72
2022-08-03T18:14:32.077Z,21.63
2022-08-03T18:17:10.257Z,21.48
2022-08-03T18:20:03.530Z,21.39
2022-08-03T18:22:28.284Z,21.29
2022-08-03T18:24:59.118Z,21.22
2022-08-03T18:27:42.437Z,21.08
2022-08-03T18:30:13.713Z,20.99
2022-08-03T18:32:43.709Z,20.96
2022-08-03T18:35:53.717Z,20.95
2022-08-03T18:38:18.808Z,20.87
2022-08-03T18:40:48.744Z,20.79
2022-08-03T18:43:17.587Z,20.72
2022-08-03T18:45:57.462Z,20.68
2022-08-03T18:48:35.810Z,20.65
2022-08-03T18:51:10.787Z,20.53
2022-08-03T18:54:02.952Z,20.40
2022-08-03T18:56:38.217Z,20.24
2022-08-03T18:59:09.905Z,20.16
2022-08-03T19:01:58.349Z,20.10
2022-08-03T19:04:55.251Z,19.95
2022-08-03T19:07:27.552Z,19.79
2022-08-03T19:10:10.824Z,19.64
2022-08-03T19:12:53.264Z,19.63
2022-08-03T19:15:36.478Z,19.56
2022-08-03T19:18:11.243Z,19.52
2022-08-03T19:20:38.439Z,19.55
2022-08-03T19:23:06.580Z,19.46
2022-08-03T19:25:38.727Z,19.41
2022-08-03T19:28:07.679Z,19.40
2022-08-03T19:30:38.965Z,19.35
2022-08-03T19:33:12.432Z,19.25
2022-08-03T19:35:51.595Z,19.21
2022-08-03T19:38:28.594Z,19.16
2022-08-03T19:41:00.028Z,19.03
2022-08-03T19:43:49.299Z,19.02
2022-08-03T19:46:22.624Z,18.91
2022-08-03T19:49:03.051Z,18.86
2022-08-03T19:52:02.159Z,18.80
2022-08-03T19:54:29.957Z,18.79
2022-08-03T19:57:01.857Z,18.78
2022-08-03T19:59:32.832Z,18.75
2022-08-03T20:01:59.608Z,18.69
2022-08-03T20:04:26.581Z,18.60
2022-08-03T20:06:57.118Z,18.47
2022-08-03T20:09:24.501Z,18.45
2022-08-03T20:12:04.021Z,18.42
2022-08-03T20:14:32.100Z,18.39
2022-08-03T20:16:59.154Z,18.39
2022-08-03T20:19:32.709Z,18.36
2022-08-03T20:22:02.374Z,18.36
2022-08-03T20:24:34.471Z,18.32
2022-08-03T20:27:07.846Z,18.27
2022-08-03T20:30:04.955Z,18.27
2022-08-03T20:32:25.560Z,18.23
2022-08-03T20:34:52.973Z,18.23
2022-08-03T20:37:20.326Z,18.13
2022-08-03T20:39:49.787Z,18.08
2022-08-03T20:42:21.178Z,18.06
2022-08-03T20:45:04.374Z,18.03
2022-08-03T20:47:35.877Z,17.91
2022-08-03T20:50:04.185Z,17.84
2022-08-03T20:52:43.988Z,17.75
2022-08-03T20:55:18.739Z,17.73
2022-08-03T20:58:05.501Z,17.67
2022-08-03T21:00:32.567Z,17.53
2022-08-03T21:02:59.371Z,17.58
2022-08-03T21:05:47.932Z,17.64
2022-08-03T21:08:16.038Z,17.67
2022-08-03T21:10:45.607Z,17.68
2022-08-03T21:12:56.883Z,21.86
2022-08-03T21:13:32.382Z,17.62
2022-08-03T21:16:11.414Z,17.50
2022-08-03T21:18:52.860Z,17.41
2022-08-03T21:21:23.217Z,17.30
2022-08-03T21:23:54.902Z,17.26
2022-08-03T21:26:24.348Z,17.20
2022-08-03T21:28:53.487Z,17.15
2022-08-03T21:31:25.390Z,17.04
2022-08-03T21:34:01.984Z,16.90
2022-08-03T21:36:33.447Z,16.84
2022-08-03T21:39:01.213Z,16.75
2022-08-03T21:41:30.674Z,16.66
2022-08-03T21:43:58.446Z,16.61
2022-08-03T21:46:29.602Z,16.58
2022-08-03T21:49:52.033Z,16.52
2022-08-03T21:51:50.330Z,16.50
2022-08-03T21:54:20.448Z,16.47
2022-08-03T21:56:50.162Z,16.49
2022-08-03T21:59:19.388Z,16.51
2022-08-03T22:01:49.179Z,16.54
2022-08-03T22:04:50.997Z,16.50
2022-08-03T22:07:10.000Z,16.40
2022-08-03T22:09:37.336Z,16.45
2022-08-03T22:12:04.655Z,16.37
2022-08-03T22:14:34.619Z,16.33
2022-08-03T22:17:03.387Z,16.33
2022-08-03T22:19:34.170Z,16.26
2022-08-03T22:22:06.169Z,16.16
2022-08-03T22:24:36.717Z,16.16
2022-08-03T22:27:23.071Z,16.03
2022-08-03T22:29:51.799Z,16.08
2022-08-03T22:32:19.137Z,16.08
2022-08-03T22:34:48.774Z,16.04
2022-08-03T22:37:21.156Z,16.08
2022-08-03T22:39:49.839Z,16.09
2022-08-03T22:42:19.344Z,16.17
2022-08-03T22:44:51.078Z,16.17
2022-08-03T22:47:22.564Z,16.21
2022-08-03T22:50:32.429Z,16.15
2022-08-03T22:52:40.823Z,16.07
2022-08-03T22:55:11.447Z,16.10
2022-08-03T22:57:45.730Z,16.04
2022-08-03T23:00:22.544Z,16.02
2022-08-03T23:02:52.031Z,15.98
2022-08-03T23:06:01.020Z,15.93
2022-08-03T23:08:20.800Z,15.92
2022-08-03T23:10:48.801Z,15.82
2022-08-03T23:13:17.917Z,15.78
2022-08-03T23:16:06.395Z,15.70
2022-08-03T23:18:39.681Z,15.58
2022-08-03T23:21:11.009Z,15.49
2022-08-03T23:23:44.490Z,15.41
2022-08-03T23:26:15.579Z,15.45
2022-08-03T23:28:46.886Z,15.45
2022-08-03T23:31:15.186Z,15.46
2022-08-03T23:33:45.692Z,15.49
2022-08-03T23:36:30.954Z,15.50
2022-08-03T23:39:02.306Z,15.40
2022-08-03T23:41:30.666Z,15.44
2022-08-03T23:44:00.747Z,15.41
2022-08-03T23:46:30.545Z,15.29
2022-08-03T23:48:58.836Z,15.25
2022-08-03T23:51:41.242Z,15.21
2022-08-03T23:54:39.057Z,15.26
2022-08-03T23:57:22.577Z,15.24
